Sangley Point, Philippines
Current Conditions -  °F | °C
As of 12:00 AM on Friday 28 Nov 2014 (Local Time) from RPLL Reporting Station
Overcast Overcast  
Wind Chill: 79°   Ceiling: 10000
Heat Index: 83°   Visibility: 6mi
Dew Point: 79°   Wind: 6mph
Humidity: 100%   Direction: 350°N
Pressure: 29.85"   Gusts: NA
Location:  14.5°N, 120.9°E
Report Text: RPLL 271600Z 35005KT 320V050 9999 SCT023 OVC100 26/26 Q1011 RERA NOSIG RMK A2985
Loading
Personal Weather Stations






























Interactive Weather Map New forecast layout! Learn more

10-Day Weather Forecast

Advertisements
Track Severe Weather on mobile